Time;durP1;ratioP1;P1;durP2;ratioP2;P2;SDS_P1;SDS_P2;PMS_P1;PMS_P2;Temp;Humidity;BMP_temperature;BMP_pressure;BME280_temperature;BME280_humidity;BME280_pressure;Samples;Min_cycle;Max_cycle;Signal;HPM_P1;HPM_P2
2023/12/02 00:00:04;;;;;;;9.70;4.38;;;-1.20;99.90;;;;;;5099596;27;20040;-65
2023/12/02 00:02:29;;;;;;;7.45;3.97;;;-1.20;99.90;;;;;;5084692;27;20042;-65
2023/12/02 00:04:55;;;;;;;12.77;4.03;;;-1.30;99.90;;;;;;5094588;27;20044;-66
2023/12/02 00:07:22;;;;;;;9.15;3.65;;;-1.30;99.90;;;;;;5100275;27;20221;-65
2023/12/02 00:09:48;;;;;;;6.85;3.58;;;-1.30;99.90;;;;;;5101209;28;20079;-65
2023/12/02 00:12:15;;;;;;;9.45;3.85;;;-1.30;99.90;;;;;;5099004;28;20050;-65
2023/12/02 00:14:41;;;;;;;3.78;2.58;;;-1.30;99.90;;;;;;5094373;28;20036;-66
2023/12/02 00:17:06;;;;;;;9.02;4.50;;;-1.30;99.90;;;;;;5097894;28;20059;-65
2023/12/02 00:19:32;;;;;;;6.40;2.38;;;-1.20;99.90;;;;;;5101988;28;20396;-66
2023/12/02 00:21:58;;;;;;;16.75;3.80;;;-1.20;99.90;;;;;;5087349;28;20040;-66
2023/12/02 00:24:24;;;;;;;9.07;4.43;;;-1.20;99.90;;;;;;5097623;28;20051;-66
2023/12/02 00:26:49;;;;;;;6.93;3.67;;;-1.20;99.90;;;;;;5103012;28;20114;-65
2023/12/02 00:29:15;;;;;;;8.35;4.80;;;-1.20;99.90;;;;;;5087101;28;20442;-66
2023/12/02 00:31:41;;;;;;;11.00;4.50;;;-1.20;99.90;;;;;;5101818;28;20529;-66
2023/12/02 00:34:07;;;;;;;8.43;4.07;;;-1.20;99.90;;;;;;5100862;28;20475;-65
2023/12/02 00:36:32;;;;;;;7.93;4.25;;;-1.10;99.90;;;;;;5081205;28;20042;-66
2023/12/02 00:38:58;;;;;;;7.35;4.05;;;-1.10;99.90;;;;;;5099568;28;20041;-65
2023/12/02 00:41:24;;;;;;;7.07;3.03;;;-1.10;99.90;;;;;;5090294;28;20027;-66
2023/12/02 00:43:50;;;;;;;5.75;2.83;;;-1.10;99.90;;;;;;5093886;28;20042;-66
2023/12/02 00:46:16;;;;;;;7.90;3.88;;;-1.00;99.90;;;;;;5101663;28;20513;-66
2023/12/02 00:48:41;;;;;;;7.13;4.03;;;-1.00;99.90;;;;;;5086006;28;20036;-66
2023/12/02 00:51:11;;;;;;;9.13;4.20;;;-1.00;99.90;;;;;;5086700;28;20499;-66
2023/12/02 00:53:41;;;;;;;8.48;4.70;;;-1.00;99.90;;;;;;5113522;27;20391;-65
2023/12/02 00:56:09;;;;;;;12.57;4.45;;;-0.90;99.90;;;;;;5100076;27;20050;-66
2023/12/02 00:58:35;;;;;;;11.55;4.80;;;-0.90;99.90;;;;;;5104525;27;20127;-66
2023/12/02 01:01:01;;;;;;;8.38;3.60;;;-0.90;99.90;;;;;;5088815;27;20118;-66
2023/12/02 01:03:27;;;;;;;7.75;3.60;;;-0.80;99.90;;;;;;5116240;27;20039;-66
2023/12/02 01:05:53;;;;;;;11.65;5.30;;;-0.90;99.90;;;;;;5102161;28;20042;-66
2023/12/02 01:08:19;;;;;;;8.35;3.92;;;-0.90;99.90;;;;;;5096769;28;20127;-66
2023/12/02 01:10:44;;;;;;;7.97;4.22;;;-0.80;99.90;;;;;;5105029;27;20038;-66
2023/12/02 01:13:32;;;;;;;10.07;4.18;;;-0.80;99.90;;;;;;5104558;27;20460;-66
2023/12/02 01:15:58;;;;;;;7.45;3.65;;;-0.70;99.90;;;;;;5106570;27;20038;-70
2023/12/02 01:18:24;;;;;;;16.35;4.00;;;-0.70;99.90;;;;;;5117541;27;20027;-69
2023/12/02 01:20:50;;;;;;;9.23;4.63;;;-0.70;99.90;;;;;;5120096;27;20084;-70
2023/12/02 01:23:15;;;;;;;6.10;3.08;;;-0.70;99.90;;;;;;5103830;27;20414;-69
2023/12/02 01:25:41;;;;;;;15.48;5.75;;;-0.70;99.90;;;;;;5099826;27;20040;-69
2023/12/02 01:28:07;;;;;;;8.88;5.05;;;-0.70;99.90;;;;;;5112148;27;20035;-70
2023/12/02 01:30:33;;;;;;;7.60;4.20;;;-0.60;99.90;;;;;;5115469;27;20035;-70
2023/12/02 01:32:59;;;;;;;8.90;4.13;;;-0.60;99.90;;;;;;5096756;28;20519;-70
2023/12/02 01:35:24;;;;;;;10.32;4.85;;;-0.60;99.90;;;;;;5089198;28;20450;-70
2023/12/02 01:37:50;;;;;;;6.05;3.92;;;-0.60;99.90;;;;;;5105697;27;20031;-70
2023/12/02 01:40:16;;;;;;;6.38;3.53;;;-0.60;99.90;;;;;;5106461;27;20410;-70
2023/12/02 01:42:42;;;;;;;7.68;4.47;;;-0.60;99.90;;;;;;5099460;27;20044;-71
2023/12/02 01:45:08;;;;;;;5.85;3.38;;;-0.60;99.90;;;;;;5085104;27;20058;-69
2023/12/02 01:47:34;;;;;;;8.02;4.45;;;-0.60;99.90;;;;;;5105372;27;20050;-70
2023/12/02 01:50:01;;;;;;;7.90;3.45;;;-0.60;99.90;;;;;;5100420;27;20039;-70
2023/12/02 01:52:27;;;;;;;10.82;4.88;;;-0.60;99.90;;;;;;5102670;27;20047;-70
2023/12/02 01:54:53;;;;;;;8.95;3.90;;;-0.50;99.90;;;;;;5102347;27;20031;-70
2023/12/02 01:57:20;;;;;;;7.55;3.92;;;-0.60;99.90;;;;;;5081550;27;20047;-70
2023/12/02 01:59:54;;;;;;;7.80;4.22;;;-0.60;99.90;;;;;;5103367;27;20044;-70
2023/12/02 02:02:20;;;;;;;12.00;4.30;;;-0.60;99.90;;;;;;5102816;27;20412;-70
2023/12/02 02:04:46;;;;;;;9.02;4.30;;;-0.50;99.90;;;;;;5100037;27;20446;-70
2023/12/02 02:07:13;;;;;;;10.00;5.90;;;-0.50;99.90;;;;;;5100854;27;20040;-70
2023/12/02 02:09:49;;;;;;;9.55;4.50;;;-0.50;99.90;;;;;;5098371;27;20510;-70
2023/12/02 02:12:15;;;;;;;9.38;4.97;;;-0.50;99.90;;;;;;5085493;27;20071;-70
2023/12/02 02:14:41;;;;;;;7.55;4.20;;;-0.50;99.90;;;;;;5104330;27;20039;-70
2023/12/02 02:17:07;;;;;;;11.90;5.35;;;-0.50;99.90;;;;;;5099850;27;20042;-70
2023/12/02 02:19:33;;;;;;;7.90;4.97;;;-0.50;99.90;;;;;;5100356;27;20039;-70
2023/12/02 02:21:59;;;;;;;9.70;4.38;;;-0.50;99.90;;;;;;5104135;28;20043;-70
2023/12/02 02:24:25;;;;;;;9.25;5.57;;;-0.50;99.90;;;;;;5099564;27;20552;-70
2023/12/02 02:26:51;;;;;;;6.63;3.83;;;-0.50;99.90;;;;;;5103766;27;20044;-70
2023/12/02 02:29:16;;;;;;;10.43;5.18;;;-0.50;99.90;;;;;;5106272;27;20122;-70
2023/12/02 02:31:42;;;;;;;11.40;4.85;;;-0.50;99.90;;;;;;5083088;27;20066;-70
2023/12/02 02:34:08;;;;;;;9.63;4.28;;;-0.40;99.90;;;;;;5097090;27;20031;-70
2023/12/02 02:36:34;;;;;;;5.47;3.45;;;-0.40;99.90;;;;;;5103415;27;20440;-70
2023/12/02 02:38:59;;;;;;;9.60;3.95;;;-0.40;99.90;;;;;;5093282;27;20050;-70
2023/12/02 02:41:25;;;;;;;12.68;5.25;;;-0.40;99.90;;;;;;5104864;27;20031;-70
2023/12/02 02:43:51;;;;;;;8.18;5.00;;;-0.40;99.90;;;;;;5104696;27;20085;-70
2023/12/02 02:46:17;;;;;;;8.20;5.25;;;-0.40;99.90;;;;;;5100692;27;20042;-70
2023/12/02 02:48:42;;;;;;;7.50;4.47;;;-0.50;99.90;;;;;;5103689;27;20039;-70
2023/12/02 02:51:08;;;;;;;5.30;3.25;;;-0.50;99.90;;;;;;5101626;27;20035;-70
2023/12/02 02:53:34;;;;;;;12.77;5.43;;;-0.50;99.90;;;;;;5102089;27;20046;-70
2023/12/02 02:56:00;;;;;;;9.77;4.03;;;-0.50;99.90;;;;;;5102176;28;20036;-70
2023/12/02 02:58:29;;;;;;;12.35;3.80;;;-0.50;99.90;;;;;;5095102;27;20031;-70
2023/12/02 03:00:55;;;;;;;9.90;4.30;;;-0.50;99.90;;;;;;5101229;27;20028;-70
2023/12/02 03:03:20;;;;;;;8.05;5.05;;;-0.50;99.90;;;;;;5100042;28;20039;-70
2023/12/02 03:05:46;;;;;;;10.02;4.85;;;-0.50;99.90;;;;;;5098152;27;20488;-70
2023/12/02 03:08:12;;;;;;;6.90;4.22;;;-0.60;99.90;;;;;;5099001;27;20659;-70
2023/12/02 03:10:38;;;;;;;9.80;4.45;;;-0.60;99.90;;;;;;5105182;27;20047;-70
2023/12/02 03:13:03;;;;;;;9.27;4.18;;;-0.60;99.90;;;;;;5098090;27;20032;-70
2023/12/02 03:15:29;;;;;;;8.30;5.30;;;-0.60;99.90;;;;;;5100770;28;20514;-70
2023/12/02 03:17:55;;;;;;;7.50;4.95;;;-0.70;99.90;;;;;;5096546;27;20036;-70
2023/12/02 03:20:21;;;;;;;14.63;4.78;;;-0.70;99.90;;;;;;5101051;27;20047;-70
2023/12/02 03:22:46;;;;;;;9.45;4.47;;;-0.70;99.90;;;;;;5104793;27;20122;-71
2023/12/02 03:25:12;;;;;;;9.73;4.63;;;-0.70;99.90;;;;;;5101665;27;20046;-71
2023/12/02 03:27:38;;;;;;;8.85;5.07;;;-0.70;99.90;;;;;;5100210;27;20498;-70
2023/12/02 03:30:05;;;;;;;6.35;3.60;;;-0.70;99.90;;;;;;5098455;28;20127;-70
2023/12/02 03:32:31;;;;;;;10.43;5.00;;;-0.70;99.90;;;;;;5102247;27;20031;-70
2023/12/02 03:34:57;;;;;;;9.60;5.65;;;-0.70;99.90;;;;;;5097648;27;20047;-70
2023/12/02 03:37:22;;;;;;;8.82;5.07;;;-0.80;99.90;;;;;;5103601;27;20088;-70
2023/12/02 03:39:48;;;;;;;8.07;4.47;;;-0.80;99.90;;;;;;5097717;27;20061;-70
2023/12/02 03:42:14;;;;;;;8.68;4.05;;;-0.80;99.90;;;;;;5099507;28;20028;-70
2023/12/02 03:44:40;;;;;;;9.50;4.90;;;-0.80;99.90;;;;;;5094526;27;20043;-70
2023/12/02 03:47:07;;;;;;;12.48;4.18;;;-0.80;99.90;;;;;;5085967;27;20516;-70
2023/12/02 03:49:33;;;;;;;11.63;4.68;;;-0.80;99.90;;;;;;5097001;28;20035;-70
2023/12/02 03:51:59;;;;;;;12.50;5.30;;;-0.80;99.90;;;;;;5078273;28;20057;-70
2023/12/02 03:54:25;;;;;;;9.65;4.57;;;-0.90;99.90;;;;;;5119537;27;20039;-71
2023/12/02 03:56:50;;;;;;;10.95;5.25;;;-0.90;99.90;;;;;;5084043;27;20039;-69
2023/12/02 03:59:16;;;;;;;7.18;3.58;;;-0.90;99.90;;;;;;5093271;28;20038;-70
2023/12/02 04:01:42;;;;;;;12.02;5.32;;;-0.90;99.90;;;;;;5099048;27;20035;-70
2023/12/02 04:04:08;;;;;;;9.18;4.32;;;-0.90;99.90;;;;;;5104343;28;20047;-70
2023/12/02 04:06:34;;;;;;;16.50;4.90;;;-0.90;99.90;;;;;;5087610;27;20049;-70
2023/12/02 04:09:00;;;;;;;16.98;5.82;;;-0.90;99.90;;;;;;5098941;28;20056;-71
2023/12/02 04:11:26;;;;;;;10.65;5.05;;;-0.90;99.90;;;;;;5105862;27;20043;-70
2023/12/02 04:13:51;;;;;;;8.27;4.38;;;-0.90;99.90;;;;;;5100710;27;20039;-70
2023/12/02 04:16:17;;;;;;;9.68;4.78;;;-0.90;99.90;;;;;;5098027;27;20095;-70
2023/12/02 04:18:43;;;;;;;10.82;4.15;;;-0.90;99.90;;;;;;5100898;27;20031;-70
2023/12/02 04:21:09;;;;;;;10.02;3.95;;;-0.90;99.90;;;;;;5097220;27;20485;-70
2023/12/02 04:23:38;;;;;;;9.95;4.10;;;-0.90;99.90;;;;;;5087265;28;20142;-70
2023/12/02 04:26:04;;;;;;;11.93;4.57;;;-0.90;99.90;;;;;;5093768;28;20040;-70
2023/12/02 04:28:30;;;;;;;6.38;4.15;;;-0.90;99.90;;;;;;5091877;28;20031;-70
2023/12/02 04:30:57;;;;;;;7.50;3.75;;;-0.90;99.90;;;;;;5101872;28;20503;-70
2023/12/02 04:33:23;;;;;;;14.43;5.25;;;-1.00;99.90;;;;;;5100090;28;20671;-70
2023/12/02 04:35:49;;;;;;;13.07;5.57;;;-1.00;99.90;;;;;;5099340;28;20095;-70
2023/12/02 04:38:16;;;;;;;17.63;5.90;;;-1.00;99.90;;;;;;5100299;28;20104;-70
2023/12/02 04:40:42;;;;;;;10.00;4.65;;;-1.00;99.90;;;;;;5080018;28;20082;-70
2023/12/02 04:43:08;;;;;;;16.35;5.20;;;-1.00;99.90;;;;;;5095934;28;20432;-70
2023/12/02 04:45:33;;;;;;;12.63;5.07;;;-1.00;99.90;;;;;;5104765;28;20035;-70
2023/12/02 04:47:59;;;;;;;12.57;4.45;;;-0.90;99.90;;;;;;5082570;28;20126;-70
2023/12/02 04:50:25;;;;;;;13.35;4.65;;;-0.90;99.90;;;;;;5101718;28;20050;-70
2023/12/02 04:52:50;;;;;;;13.07;4.75;;;-0.90;99.90;;;;;;5097592;28;20047;-70
2023/12/02 04:55:16;;;;;;;10.32;5.07;;;-0.90;99.90;;;;;;5096588;28;20035;-70
2023/12/02 04:57:42;;;;;;;10.38;5.47;;;-0.90;99.90;;;;;;5078638;28;20043;-70
2023/12/02 05:00:13;;;;;;;12.02;5.78;;;-0.90;99.90;;;;;;5090188;28;20091;-70
2023/12/02 05:02:43;;;;;;;11.63;4.32;;;-0.90;99.90;;;;;;5095447;28;20047;-70
2023/12/02 05:05:10;;;;;;;8.05;3.92;;;-0.90;99.90;;;;;;5099916;28;20032;-70
2023/12/02 05:07:36;;;;;;;12.02;4.93;;;-0.90;99.90;;;;;;5099878;28;20426;-70
2023/12/02 05:10:04;;;;;;;12.13;5.47;;;-0.90;99.90;;;;;;5101189;28;20047;-70
2023/12/02 05:12:31;;;;;;;7.93;4.10;;;-0.90;99.90;;;;;;5096436;28;20039;-70
2023/12/02 05:14:56;;;;;;;12.20;5.13;;;-0.90;99.90;;;;;;5097006;28;20428;-70
2023/12/02 05:17:22;;;;;;;11.30;4.22;;;-0.90;99.90;;;;;;5103433;28;20039;-70
2023/12/02 05:19:48;;;;;;;9.60;5.85;;;-0.90;99.90;;;;;;5094407;28;20487;-70
2023/12/02 05:22:14;;;;;;;11.07;5.25;;;-0.90;99.90;;;;;;5096804;28;20547;-70
2023/12/02 05:24:41;;;;;;;14.10;5.60;;;-0.90;99.90;;;;;;5100071;28;20046;-70
2023/12/02 05:27:06;;;;;;;9.65;5.75;;;-0.90;99.90;;;;;;5093595;28;20487;-71
2023/12/02 05:29:32;;;;;;;8.98;3.72;;;-0.90;99.90;;;;;;5100175;28;20045;-70
2023/12/02 05:31:58;;;;;;;12.95;5.65;;;-0.90;99.90;;;;;;5083762;28;20502;-70
2023/12/02 05:34:24;;;;;;;8.63;4.43;;;-0.90;99.90;;;;;;5075653;28;20396;-70
2023/12/02 05:36:50;;;;;;;10.55;3.55;;;-0.90;99.90;;;;;;5100262;28;20042;-70
2023/12/02 05:39:16;;;;;;;10.90;4.70;;;-0.90;99.90;;;;;;5100341;28;20058;-70
2023/12/02 05:41:42;;;;;;;9.07;4.57;;;-0.80;99.90;;;;;;5101017;28;20110;-70
2023/12/02 05:44:09;;;;;;;10.60;4.80;;;-0.90;99.90;;;;;;5088503;27;20482;-71
2023/12/02 05:46:36;;;;;;;10.45;5.18;;;-0.80;99.90;;;;;;5101115;27;20047;-70
2023/12/02 05:49:02;;;;;;;7.60;4.00;;;-0.80;99.90;;;;;;5082520;27;20036;-70
2023/12/02 05:51:28;;;;;;;18.60;6.78;;;-0.90;99.90;;;;;;5104837;27;20039;-70
2023/12/02 05:53:53;;;;;;;9.98;5.47;;;-0.80;99.90;;;;;;5101459;27;20032;-70
2023/12/02 05:56:19;;;;;;;10.73;4.63;;;-0.80;99.90;;;;;;5103901;28;20032;-70
2023/12/02 05:58:46;;;;;;;10.20;5.50;;;-0.90;99.90;;;;;;5104675;27;20463;-70
2023/12/02 06:01:11;;;;;;;12.93;5.95;;;-0.80;99.90;;;;;;5103674;28;20102;-70
2023/12/02 06:03:37;;;;;;;8.77;4.45;;;-0.80;99.90;;;;;;5103371;27;20417;-70
2023/12/02 06:06:10;;;;;;;11.95;5.45;;;-0.80;99.90;;;;;;5105046;27;20087;-71
2023/12/02 06:08:36;;;;;;;11.68;5.03;;;-0.80;99.90;;;;;;5099968;27;20055;-71
2023/12/02 06:11:02;;;;;;;13.27;5.32;;;-0.80;99.90;;;;;;5103420;27;20040;-71
2023/12/02 06:13:29;;;;;;;12.95;6.82;;;-0.80;99.90;;;;;;5101754;27;20117;-70
2023/12/02 06:15:55;;;;;;;9.82;4.35;;;-0.80;99.90;;;;;;5101321;27;20036;-70
2023/12/02 06:18:20;;;;;;;10.35;4.90;;;-0.80;99.90;;;;;;5104051;27;20160;-70
2023/12/02 06:20:46;;;;;;;13.57;5.97;;;-0.80;99.90;;;;;;5099561;27;20039;-71
2023/12/02 06:23:12;;;;;;;15.50;6.85;;;-0.80;99.90;;;;;;5100190;27;20050;-71
2023/12/02 06:25:38;;;;;;;8.05;4.80;;;-0.80;99.90;;;;;;5100296;27;20098;-70
2023/12/02 06:28:04;;;;;;;15.77;4.88;;;-0.80;99.90;;;;;;5093365;27;20479;-71
2023/12/02 06:30:31;;;;;;;11.10;5.78;;;-0.80;99.90;;;;;;5086317;27;20043;-71
2023/12/02 06:32:57;;;;;;;15.52;5.85;;;-0.80;99.90;;;;;;5088652;27;20472;-70
2023/12/02 06:35:22;;;;;;;14.68;5.22;;;-0.80;99.90;;;;;;5100287;28;20067;-70
2023/12/02 06:37:49;;;;;;;8.13;5.00;;;-0.80;99.90;;;;;;5100043;27;20080;-70
2023/12/02 06:40:15;;;;;;;10.02;5.22;;;-0.80;99.90;;;;;;5106113;27;20050;-70
2023/12/02 06:42:40;;;;;;;9.48;5.22;;;-0.80;99.90;;;;;;5097751;27;20051;-70
2023/12/02 06:45:07;;;;;;;14.85;5.63;;;-0.80;99.90;;;;;;5101286;28;20031;-70
2023/12/02 06:47:33;;;;;;;10.35;4.60;;;-0.80;99.90;;;;;;5107556;27;20391;-70
2023/12/02 06:49:58;;;;;;;9.52;4.90;;;-0.80;99.90;;;;;;5100416;28;20043;-71
2023/12/02 06:52:24;;;;;;;11.18;5.18;;;-0.80;99.90;;;;;;5103727;27;20031;-70
2023/12/02 06:54:50;;;;;;;8.00;4.75;;;-0.80;99.90;;;;;;5095144;28;20080;-70
2023/12/02 06:57:16;;;;;;;14.90;6.03;;;-0.90;99.90;;;;;;5117084;27;20031;-70
2023/12/02 06:59:45;;;;;;;8.27;5.07;;;-0.80;99.90;;;;;;5103092;27;20126;-70
2023/12/02 07:02:12;;;;;;;9.98;4.22;;;-0.90;99.90;;;;;;5096063;27;20078;-70
2023/12/02 07:04:38;;;;;;;9.82;3.97;;;-0.90;99.90;;;;;;5095157;27;20035;-70
2023/12/02 07:07:03;;;;;;;14.95;5.00;;;-0.90;99.90;;;;;;5103772;27;20558;-70
2023/12/02 07:09:29;;;;;;;11.32;5.03;;;-0.90;99.90;;;;;;5098594;27;20066;-70
2023/12/02 07:11:55;;;;;;;14.98;4.95;;;-0.90;99.90;;;;;;5099190;27;20039;-70
2023/12/02 07:14:21;;;;;;;14.70;6.28;;;-0.90;99.90;;;;;;5085583;27;20042;-70
2023/12/02 07:16:46;;;;;;;13.88;5.93;;;-0.90;99.90;;;;;;5098589;27;20742;-70
2023/12/02 07:19:12;;;;;;;11.02;5.93;;;-0.90;99.90;;;;;;5101576;27;20039;-70
2023/12/02 07:21:38;;;;;;;13.10;5.07;;;-0.90;99.90;;;;;;5085150;27;20086;-70
2023/12/02 07:24:04;;;;;;;13.70;5.68;;;-0.90;99.90;;;;;;5082694;27;20039;-70
2023/12/02 07:26:30;;;;;;;9.60;4.57;;;-0.90;99.90;;;;;;5101747;28;20067;-71
2023/12/02 07:28:56;;;;;;;12.73;5.57;;;-0.90;99.90;;;;;;5104745;27;20510;-72
2023/12/02 07:31:22;;;;;;;16.15;6.63;;;-0.90;99.90;;;;;;5115079;27;20034;-72
2023/12/02 07:33:48;;;;;;;17.10;6.93;;;-0.90;99.90;;;;;;5100915;27;20054;-71
2023/12/02 07:36:13;;;;;;;14.38;5.30;;;-0.90;99.90;;;;;;5104088;27;20035;-71
2023/12/02 07:38:40;;;;;;;9.80;5.25;;;-0.90;99.90;;;;;;5082864;27;20041;-72
2023/12/02 07:41:08;;;;;;;10.60;4.78;;;-0.90;99.90;;;;;;5098425;27;20051;-72
2023/12/02 07:43:34;;;;;;;17.73;6.30;;;-0.90;99.90;;;;;;5103710;27;20027;-72
2023/12/02 07:46:00;;;;;;;12.55;5.45;;;-0.80;99.90;;;;;;5096818;27;20382;-72
2023/12/02 07:48:25;;;;;;;12.60;6.40;;;-0.80;99.90;;;;;;5101727;27;20041;-72
2023/12/02 07:50:51;;;;;;;16.73;6.22;;;-0.80;99.90;;;;;;5082933;27;20031;-72
2023/12/02 07:53:17;;;;;;;14.23;5.63;;;-0.70;99.90;;;;;;5082111;28;20514;-72
2023/12/02 07:55:43;;;;;;;10.40;5.90;;;-0.70;99.90;;;;;;5104824;28;20114;-72
2023/12/02 07:58:09;;;;;;;15.05;6.15;;;-0.70;99.90;;;;;;5097009;27;20043;-72
2023/12/02 08:00:34;;;;;;;14.55;5.78;;;-0.70;99.90;;;;;;5096909;27;20299;-72
2023/12/02 08:03:00;;;;;;;9.90;5.22;;;-0.60;99.90;;;;;;5101997;27;20043;-72
2023/12/02 08:05:26;;;;;;;16.27;7.80;;;-0.60;99.90;;;;;;5087391;28;20036;-73
2023/12/02 08:07:52;;;;;;;13.32;4.28;;;-0.60;99.90;;;;;;5084716;27;20078;-71
2023/12/02 08:10:18;;;;;;;14.05;6.10;;;-0.50;99.90;;;;;;5103537;28;20755;-73
2023/12/02 08:12:43;;;;;;;14.13;6.40;;;-0.50;99.90;;;;;;5079311;27;20453;-73
2023/12/02 08:15:09;;;;;;;12.93;5.40;;;-0.40;99.90;;;;;;5094767;28;20046;-72
2023/12/02 08:17:36;;;;;;;23.25;7.28;;;-0.40;99.90;;;;;;5108788;27;20096;-73
2023/12/02 08:20:03;;;;;;;15.88;6.93;;;-0.40;99.90;;;;;;5101022;28;20032;-72
2023/12/02 08:22:29;;;;;;;8.55;5.25;;;-0.30;99.90;;;;;;5107406;27;20070;-72
2023/12/02 08:24:55;;;;;;;14.75;6.25;;;-0.30;99.90;;;;;;5100142;28;20075;-72
2023/12/02 08:27:21;;;;;;;12.90;5.85;;;-0.20;99.90;;;;;;5098315;27;20480;-72
2023/12/02 08:29:47;;;;;;;10.48;4.22;;;-0.20;99.90;;;;;;5101791;28;20042;-72
2023/12/02 08:32:13;;;;;;;20.63;6.65;;;-0.20;99.90;;;;;;5079915;27;20489;-72
2023/12/02 08:34:39;;;;;;;13.20;6.22;;;-0.20;99.90;;;;;;5097637;28;20047;-72
2023/12/02 08:37:06;;;;;;;16.23;6.20;;;-0.10;99.90;;;;;;5102164;27;20073;-72
2023/12/02 08:39:32;;;;;;;12.95;5.90;;;-0.10;99.90;;;;;;5094067;28;20452;-72
2023/12/02 08:41:57;;;;;;;19.35;6.60;;;0.00;99.90;;;;;;5081799;28;20053;-72
2023/12/02 08:44:24;;;;;;;13.63;6.55;;;0.00;99.90;;;;;;5100062;28;20114;-72
2023/12/02 08:46:50;;;;;;;15.80;6.70;;;0.00;99.90;;;;;;5097481;28;20038;-72
2023/12/02 08:49:16;;;;;;;14.68;5.47;;;0.10;99.90;;;;;;5099702;28;20479;-72
2023/12/02 08:51:42;;;;;;;15.45;7.15;;;0.10;99.90;;;;;;5105009;28;20168;-72
2023/12/02 08:54:08;;;;;;;17.73;6.15;;;0.10;99.90;;;;;;5096635;28;20513;-72
2023/12/02 08:56:33;;;;;;;13.48;6.60;;;0.20;99.90;;;;;;5100779;28;20036;-72
2023/12/02 08:58:59;;;;;;;11.50;6.10;;;0.20;99.90;;;;;;5081604;28;20043;-72
2023/12/02 09:01:26;;;;;;;13.00;5.40;;;0.30;99.90;;;;;;5097428;28;20047;-72
2023/12/02 09:03:53;;;;;;;13.02;6.28;;;0.30;99.90;;;;;;5103327;28;20318;-72
2023/12/02 09:06:18;;;;;;;14.65;6.47;;;0.40;99.90;;;;;;5094210;28;20039;-72
2023/12/02 09:08:44;;;;;;;14.60;6.15;;;0.50;99.90;;;;;;5078847;28;20062;-72
2023/12/02 09:11:10;;;;;;;10.15;6.65;;;0.50;99.90;;;;;;5080637;28;20498;-72
2023/12/02 09:13:39;;;;;;;11.75;4.82;;;0.50;99.90;;;;;;5086083;28;20054;-72
2023/12/02 09:16:14;;;;;;;14.55;6.68;;;0.60;99.90;;;;;;5085740;28;20039;-67
2023/12/02 09:18:40;;;;;;;16.48;6.68;;;0.60;99.90;;;;;;5088227;28;20039;-67
2023/12/02 09:21:39;;;;;;;11.55;5.18;;;0.60;99.90;;;;;;5098108;28;20760;-67
2023/12/02 09:24:25;;;;;;;15.75;6.20;;;0.60;99.90;;;;;;5086640;28;20425;-67
2023/12/02 09:26:51;;;;;;;16.90;6.38;;;0.60;99.90;;;;;;5111252;27;20040;-72
2023/12/02 09:29:16;;;;;;;9.70;4.63;;;0.60;99.90;;;;;;5080877;27;20038;-72
2023/12/02 09:31:43;;;;;;;10.80;6.05;;;0.70;99.90;;;;;;5104509;27;20097;-72
2023/12/02 09:34:40;;;;;;;12.60;5.47;;;0.70;99.90;;;;;;5098794;27;20089;-73
2023/12/02 09:37:29;;;;;;;18.85;6.55;;;0.80;99.90;;;;;;5084343;27;20062;-73
2023/12/02 09:39:55;;;;;;;16.83;6.78;;;0.80;99.90;;;;;;5098276;27;20054;-72
2023/12/02 09:42:22;;;;;;;15.95;7.35;;;0.90;99.90;;;;;;5097280;27;20066;-72
2023/12/02 09:44:55;;;;;;;15.88;6.22;;;1.00;99.90;;;;;;5091230;27;20404;-72
2023/12/02 09:47:23;;;;;;;14.95;6.35;;;1.00;99.90;;;;;;5102255;27;20047;-72
2023/12/02 09:50:11;;;;;;;16.55;5.85;;;1.10;99.90;;;;;;5101303;27;20031;-73
2023/12/02 09:52:56;;;;;;;13.38;6.63;;;1.10;99.90;;;;;;5108709;27;20039;-73
2023/12/02 09:55:31;;;;;;;17.35;7.93;;;1.20;99.90;;;;;;5096185;27;20492;-68
2023/12/02 09:58:22;;;;;;;15.60;7.95;;;1.30;99.90;;;;;;5105038;27;20113;-67
2023/12/02 10:00:56;;;;;;;13.80;6.90;;;1.50;99.90;;;;;;5096928;27;20147;-67
2023/12/02 10:03:40;;;;;;;15.52;6.40;;;1.60;99.90;;;;;;5101629;27;20471;-68
2023/12/02 10:06:45;;;;;;;11.77;5.88;;;1.70;99.90;;;;;;5098092;27;20498;-67
2023/12/02 10:09:30;;;;;;;19.48;5.25;;;1.80;99.90;;;;;;5106269;27;20519;-67
2023/12/02 10:12:36;;;;;;;12.07;5.55;;;2.00;99.90;;;;;;5095476;28;20052;-67
2023/12/02 10:15:06;;;;;;;15.10;6.53;;;2.10;99.90;;;;;;5094805;28;20046;-67
2023/12/02 10:17:40;;;;;;;14.48;6.07;;;2.50;99.90;;;;;;5086790;27;20043;-68
2023/12/02 10:20:12;;;;;;;19.10;7.53;;;3.30;99.90;;;;;;5100593;27;20042;-67
2023/12/02 10:22:44;;;;;;;18.60;7.57;;;3.90;99.90;;;;;;5100730;28;20054;-68
2023/12/02 10:25:18;;;;;;;18.23;8.02;;;4.10;99.90;;;;;;5085959;28;20164;-67
2023/12/02 10:27:45;;;;;;;15.32;6.43;;;4.10;99.90;;;;;;5088073;28;20128;-67
2023/12/02 10:30:17;;;;;;;11.90;5.32;;;3.90;99.90;;;;;;5114977;27;20039;-68
2023/12/02 10:33:21;;;;;;;21.35;9.27;;;3.70;99.90;;;;;;5095368;28;20103;-67
2023/12/02 10:35:49;;;;;;;19.17;8.70;;;3.60;99.90;;;;;;5092992;27;20051;-67
2023/12/02 10:38:39;;;;;;;12.02;6.10;;;3.40;99.90;;;;;;5103459;27;20050;-67
2023/12/02 10:41:30;;;;;;;12.57;6.07;;;3.40;99.90;;;;;;5103305;27;20043;-67
2023/12/02 10:43:59;;;;;;;16.70;7.55;;;3.40;99.90;;;;;;5095019;28;20036;-67
2023/12/02 10:46:26;;;;;;;9.77;6.03;;;3.30;99.90;;;;;;5102263;27;20035;-67
2023/12/02 10:48:54;;;;;;;17.60;6.43;;;3.20;99.90;;;;;;5094856;27;20036;-72
2023/12/02 10:51:23;;;;;;;19.50;7.28;;;3.20;99.90;;;;;;5086489;28;20036;-73
2023/12/02 10:53:51;;;;;;;13.32;5.43;;;3.10;99.90;;;;;;5104891;27;20507;-72
2023/12/02 10:56:23;;;;;;;12.20;6.28;;;3.10;99.90;;;;;;5094774;28;20046;-72
2023/12/02 10:58:50;;;;;;;15.52;5.47;;;3.10;99.90;;;;;;5099890;27;20042;-72
2023/12/02 11:01:26;;;;;;;14.05;6.13;;;3.10;99.90;;;;;;5096435;28;20134;-72
2023/12/02 11:04:02;;;;;;;16.95;7.47;;;3.10;99.90;;;;;;5099604;28;20053;-72
2023/12/02 11:06:36;;;;;;;17.60;6.65;;;3.10;99.90;;;;;;5108265;28;20115;-72
2023/12/02 11:09:16;;;;;;;15.80;7.85;;;3.10;99.90;;;;;;5110038;27;20059;-72
2023/12/02 11:11:46;;;;;;;17.92;5.63;;;3.10;99.90;;;;;;5096520;27;20106;-72
2023/12/02 11:14:17;;;;;;;11.93;5.50;;;3.00;99.90;;;;;;5101463;27;20046;-72
2023/12/02 11:16:50;;;;;;;10.93;4.10;;;3.00;99.90;;;;;;5097893;27;20622;-72
2023/12/02 11:19:22;;;;;;;12.57;4.57;;;3.00;99.90;;;;;;5099955;27;20046;-72
2023/12/02 11:22:13;;;;;;;12.23;5.38;;;3.00;99.90;;;;;;5098190;28;20460;-72
2023/12/02 11:25:03;;;;;;;10.52;5.55;;;3.10;99.90;;;;;;5082353;27;20472;-72
2023/12/02 11:28:03;;;;;;;13.93;6.03;;;3.20;99.90;;;;;;5096447;27;20070;-73
2023/12/02 11:30:41;;;;;;;13.10;5.80;;;3.20;99.90;;;;;;5086261;27;20046;-72
2023/12/02 11:33:46;;;;;;;8.52;4.07;;;3.20;99.90;;;;;;5068833;27;20039;-73
2023/12/02 11:36:11;;;;;;;12.10;5.07;;;3.20;99.90;;;;;;5003038;27;20093;-72
2023/12/02 11:38:55;;;;;;;12.75;4.28;;;3.30;99.90;;;;;;5096779;27;20467;-72
2023/12/02 11:41:58;;;;;;;8.63;4.07;;;3.30;99.90;;;;;;5091989;28;20092;-72
2023/12/02 11:44:38;;;;;;;10.52;4.57;;;3.40;99.90;;;;;;5087978;27;20048;-73
2023/12/02 11:47:16;;;;;;;7.95;3.95;;;3.40;99.90;;;;;;5101146;27;20050;-73
2023/12/02 11:49:41;;;;;;;10.20;4.82;;;3.40;99.90;;;;;;5097103;28;20480;-72
2023/12/02 11:52:19;;;;;;;8.38;3.63;;;3.40;99.90;;;;;;5087030;27;20085;-73
2023/12/02 11:55:16;;;;;;;9.25;4.22;;;3.50;99.90;;;;;;5088153;27;20040;-73
2023/12/02 11:57:56;;;;;;;9.40;3.88;;;3.50;99.90;;;;;;5090503;27;20041;-73
2023/12/02 12:00:51;;;;;;;11.35;4.28;;;3.50;99.90;;;;;;5102505;27;20058;-72
2023/12/02 12:03:46;;;;;;;12.80;3.83;;;3.60;99.90;;;;;;5099242;27;20046;-73
2023/12/02 12:06:24;;;;;;;7.68;4.57;;;3.60;99.90;;;;;;5097106;27;20042;-73
2023/12/02 12:09:29;;;;;;;9.32;4.05;;;3.60;99.90;;;;;;5083062;27;20047;-73
2023/12/02 12:11:57;;;;;;;5.00;3.45;;;3.60;99.90;;;;;;5094858;27;20075;-73
2023/12/02 12:14:27;;;;;;;5.88;2.92;;;3.60;99.90;;;;;;5097807;27;20035;-73
2023/12/02 12:16:53;;;;;;;4.45;2.03;;;3.60;99.90;;;;;;5102921;28;20047;-72
2023/12/02 12:19:19;;;;;;;7.97;3.42;;;3.70;99.90;;;;;;5098935;27;20113;-72
2023/12/02 12:21:47;;;;;;;6.05;1.75;;;3.70;99.90;;;;;;5081628;28;20070;-72
2023/12/02 12:24:14;;;;;;;3.47;2.03;;;3.70;99.90;;;;;;5095935;27;20088;-73
2023/12/02 12:26:40;;;;;;;4.30;2.20;;;3.80;99.90;;;;;;5095220;27;20043;-72
2023/12/02 12:29:06;;;;;;;4.25;2.25;;;3.80;99.90;;;;;;5098404;28;20050;-72
2023/12/02 12:31:31;;;;;;;3.63;1.90;;;3.80;99.90;;;;;;5099771;27;20118;-72
2023/12/02 12:33:58;;;;;;;8.27;3.03;;;3.70;99.90;;;;;;5076650;28;20032;-73
2023/12/02 12:36:28;;;;;;;5.57;1.85;;;3.70;99.90;;;;;;5101543;28;20104;-73
2023/12/02 12:38:59;;;;;;;3.70;2.05;;;3.70;99.90;;;;;;5102504;28;20031;-72
2023/12/02 12:41:25;;;;;;;4.40;1.38;;;3.70;99.90;;;;;;5098834;28;20490;-72
2023/12/02 12:43:54;;;;;;;2.90;1.42;;;3.70;99.90;;;;;;5096226;28;20047;-72
2023/12/02 12:46:20;;;;;;;1.20;0.75;;;3.70;99.90;;;;;;5096864;28;20042;-72
2023/12/02 12:48:51;;;;;;;1.52;1.00;;;3.70;99.90;;;;;;5096447;27;20050;-72
2023/12/02 12:51:21;;;;;;;2.33;1.27;;;3.70;99.90;;;;;;5101152;28;20048;-72